createdAt,value
2022-11-08T00:00:05.000Z,10.47
2022-11-08T00:01:05.000Z,10.46
2022-11-08T00:02:05.000Z,10.46
2022-11-08T00:03:05.000Z,10.44
2022-11-08T00:04:05.000Z,10.47
2022-11-08T00:05:05.000Z,10.47
2022-11-08T00:06:05.000Z,10.44
2022-11-08T00:07:05.000Z,10.44
2022-11-08T00:08:05.000Z,10.40
2022-11-08T00:09:05.000Z,10.40
2022-11-08T00:10:13.000Z,10.42
2022-11-08T00:11:05.000Z,10.37
2022-11-08T00:12:05.000Z,10.37
2022-11-08T00:13:05.000Z,10.37
2022-11-08T00:14:05.000Z,10.32
2022-11-08T00:15:05.000Z,10.34
2022-11-08T00:16:05.000Z,10.30
2022-11-08T00:17:05.000Z,10.25
2022-11-08T00:18:05.000Z,10.28
2022-11-08T00:19:05.000Z,10.30
2022-11-08T00:20:05.000Z,10.33
2022-11-08T00:21:05.000Z,10.32
2022-11-08T00:22:05.000Z,10.33
2022-11-08T00:23:05.000Z,10.26
2022-11-08T00:24:05.000Z,10.28
2022-11-08T00:25:05.000Z,10.25
2022-11-08T00:26:05.000Z,10.25
2022-11-08T00:27:05.000Z,10.22
2022-11-08T00:28:05.000Z,10.22
2022-11-08T00:29:05.000Z,10.22
2022-11-08T00:30:05.000Z,10.21
2022-11-08T00:31:05.000Z,10.17
2022-11-08T00:32:05.000Z,10.17
2022-11-08T00:33:05.000Z,10.15
2022-11-08T00:34:05.000Z,10.15
2022-11-08T00:35:05.000Z,10.12
2022-11-08T00:36:05.000Z,10.07
2022-11-08T00:37:05.000Z,10.06
2022-11-08T00:38:05.000Z,10.06
2022-11-08T00:39:05.000Z,10.06
2022-11-08T00:40:05.000Z,9.99
2022-11-08T00:41:05.000Z,9.96
2022-11-08T00:42:05.000Z,9.93
2022-11-08T00:43:05.000Z,9.88
2022-11-08T00:44:05.000Z,9.85
2022-11-08T00:45:05.000Z,9.83
2022-11-08T00:46:05.000Z,9.86
2022-11-08T00:47:05.000Z,9.83
2022-11-08T00:48:05.000Z,9.83
2022-11-08T00:49:05.000Z,9.83
2022-11-08T00:50:05.000Z,9.85
2022-11-08T00:51:05.000Z,9.89
2022-11-08T00:52:05.000Z,9.89
2022-11-08T00:53:05.000Z,9.86
2022-11-08T00:54:05.000Z,9.85
2022-11-08T00:55:05.000Z,9.89
2022-11-08T00:56:05.000Z,9.83
2022-11-08T00:57:05.000Z,9.83
2022-11-08T00:58:05.000Z,9.83
2022-11-08T00:59:05.000Z,9.82
2022-11-08T01:00:05.000Z,9.85
2022-11-08T01:01:05.000Z,9.82
2022-11-08T01:02:05.000Z,9.85
2022-11-08T01:03:05.000Z,9.83
2022-11-08T01:04:05.000Z,9.81
2022-11-08T01:05:05.000Z,9.82
2022-11-08T01:06:05.000Z,9.75
2022-11-08T01:07:05.000Z,9.71
2022-11-08T01:08:05.000Z,9.71
2022-11-08T01:09:05.000Z,9.78
2022-11-08T01:10:05.000Z,9.73
2022-11-08T01:11:05.000Z,9.78
2022-11-08T01:12:05.000Z,9.79
2022-11-08T01:13:05.000Z,9.85
2022-11-08T01:14:05.000Z,9.86
2022-11-08T01:15:05.000Z,9.89
2022-11-08T01:16:05.000Z,9.93
2022-11-08T01:17:05.000Z,9.94
2022-11-08T01:18:05.000Z,9.91
2022-11-08T01:19:05.000Z,9.94
2022-11-08T01:20:05.000Z,9.96
2022-11-08T01:21:05.000Z,9.99
2022-11-08T01:22:05.000Z,9.99
2022-11-08T01:23:05.000Z,10.00
2022-11-08T01:24:05.000Z,9.99
2022-11-08T01:25:05.000Z,9.97
2022-11-08T01:26:05.000Z,9.97
2022-11-08T01:27:05.000Z,9.97
2022-11-08T01:28:05.000Z,9.91
2022-11-08T01:29:05.000Z,9.89
2022-11-08T01:30:05.000Z,9.88
2022-11-08T01:31:05.000Z,9.93
2022-11-08T01:32:05.000Z,9.86
2022-11-08T01:33:05.000Z,9.88
2022-11-08T01:34:05.000Z,9.88
2022-11-08T01:35:05.000Z,9.85
2022-11-08T01:36:05.000Z,9.88
2022-11-08T01:37:05.000Z,9.91
2022-11-08T01:38:05.000Z,9.85
2022-11-08T01:39:05.000Z,9.81
2022-11-08T01:40:05.000Z,9.82
2022-11-08T01:41:05.000Z,9.81
2022-11-08T01:42:05.000Z,9.81
2022-11-08T01:43:05.000Z,9.81
2022-11-08T01:44:05.000Z,9.81
2022-11-08T01:45:05.000Z,9.79
2022-11-08T01:46:05.000Z,9.79
2022-11-08T01:47:05.000Z,9.78
2022-11-08T01:48:05.000Z,9.79
2022-11-08T01:49:05.000Z,9.76
2022-11-08T01:50:05.000Z,9.73
2022-11-08T01:51:05.000Z,9.70
2022-11-08T01:52:05.000Z,9.67
2022-11-08T01:53:05.000Z,9.68
2022-11-08T01:54:05.000Z,9.73
2022-11-08T01:55:05.000Z,9.66
2022-11-08T01:56:05.000Z,9.68
2022-11-08T01:57:04.000Z,9.67
2022-11-08T01:58:04.000Z,9.67
2022-11-08T01:59:04.000Z,9.68
2022-11-08T02:00:04.000Z,9.67
2022-11-08T02:01:04.000Z,9.67
2022-11-08T02:02:04.000Z,9.68
2022-11-08T02:03:04.000Z,9.64
2022-11-08T02:04:04.000Z,9.70
2022-11-08T02:05:04.000Z,9.71
2022-11-08T02:06:04.000Z,9.75
2022-11-08T02:07:04.000Z,9.75
2022-11-08T02:08:04.000Z,9.71
2022-11-08T02:09:04.000Z,9.73
2022-11-08T02:10:04.000Z,9.78
2022-11-08T02:11:04.000Z,9.76
2022-11-08T02:12:04.000Z,9.76
2022-11-08T02:13:04.000Z,9.76
2022-11-08T02:14:04.000Z,9.75
2022-11-08T02:15:04.000Z,9.73
2022-11-08T02:16:04.000Z,9.70
2022-11-08T02:17:04.000Z,9.70
2022-11-08T02:18:04.000Z,9.66
2022-11-08T02:19:04.000Z,9.63
2022-11-08T02:20:04.000Z,9.60
2022-11-08T02:21:04.000Z,9.58
2022-11-08T02:22:04.000Z,9.53
2022-11-08T02:23:04.000Z,9.48
2022-11-08T02:24:04.000Z,9.45
2022-11-08T02:25:04.000Z,9.42
2022-11-08T02:26:04.000Z,9.40
2022-11-08T02:27:04.000Z,9.38
2022-11-08T02:28:04.000Z,9.39
2022-11-08T02:29:04.000Z,9.35
2022-11-08T02:30:04.000Z,9.34
2022-11-08T02:31:04.000Z,9.39
2022-11-08T02:32:04.000Z,9.40
2022-11-08T02:33:04.000Z,9.39
2022-11-08T02:34:04.000Z,9.45
2022-11-08T02:35:04.000Z,9.45
2022-11-08T02:36:04.000Z,9.46
2022-11-08T02:37:04.000Z,9.45
2022-11-08T02:38:04.000Z,9.46
2022-11-08T02:39:04.000Z,9.48
2022-11-08T02:40:04.000Z,9.42
2022-11-08T02:41:04.000Z,9.45
2022-11-08T02:42:04.000Z,9.45
2022-11-08T02:43:04.000Z,9.48
2022-11-08T02:44:04.000Z,9.43
2022-11-08T02:45:04.000Z,9.45
2022-11-08T02:46:04.000Z,9.42
2022-11-08T02:47:04.000Z,9.43
2022-11-08T02:48:04.000Z,9.38
2022-11-08T02:49:04.000Z,9.42
2022-11-08T02:50:04.000Z,9.34
2022-11-08T02:51:04.000Z,9.30
2022-11-08T02:52:04.000Z,9.31
2022-11-08T02:53:04.000Z,9.28
2022-11-08T02:54:04.000Z,9.30
2022-11-08T02:55:04.000Z,9.28
2022-11-08T02:56:04.000Z,9.28
2022-11-08T02:57:04.000Z,9.25
2022-11-08T02:58:04.000Z,9.28
2022-11-08T02:59:04.000Z,9.24
2022-11-08T03:00:04.000Z,9.24
2022-11-08T03:01:04.000Z,9.23
2022-11-08T03:02:04.000Z,9.20
2022-11-08T03:03:04.000Z,9.16
2022-11-08T03:04:04.000Z,9.23
2022-11-08T03:05:04.000Z,9.13
2022-11-08T03:06:04.000Z,9.12
2022-11-08T03:07:04.000Z,9.06
2022-11-08T03:08:04.000Z,9.04
2022-11-08T03:09:04.000Z,8.99
2022-11-08T03:10:04.000Z,8.97
2022-11-08T03:11:04.000Z,8.94
2022-11-08T03:12:04.000Z,8.90
2022-11-08T03:13:04.000Z,8.87
2022-11-08T03:14:04.000Z,8.86
2022-11-08T03:15:04.000Z,8.79
2022-11-08T03:16:04.000Z,8.81
2022-11-08T03:17:04.000Z,8.79
2022-11-08T03:18:04.000Z,8.73
2022-11-08T03:19:04.000Z,8.78
2022-11-08T03:20:04.000Z,8.71
2022-11-08T03:21:04.000Z,8.71
2022-11-08T03:22:04.000Z,8.73
2022-11-08T03:23:04.000Z,8.73
2022-11-08T03:24:04.000Z,8.71
2022-11-08T03:25:04.000Z,8.69
2022-11-08T03:26:04.000Z,8.69
2022-11-08T03:27:04.000Z,8.71
2022-11-08T03:28:04.000Z,8.71
2022-11-08T03:29:04.000Z,8.72
2022-11-08T03:30:04.000Z,8.66
2022-11-08T03:31:04.000Z,8.73
2022-11-08T03:32:04.000Z,8.79
2022-11-08T03:33:04.000Z,8.79
2022-11-08T03:34:04.000Z,8.78
2022-11-08T03:35:04.000Z,8.73
2022-11-08T03:36:04.000Z,8.76
2022-11-08T03:37:04.000Z,8.73
2022-11-08T03:38:04.000Z,8.71
2022-11-08T03:39:04.000Z,8.71
2022-11-08T03:40:04.000Z,8.65
2022-11-08T03:41:04.000Z,8.60
2022-11-08T03:42:04.000Z,8.57
2022-11-08T03:43:04.000Z,8.51
2022-11-08T03:44:04.000Z,8.53
2022-11-08T03:45:04.000Z,8.53
2022-11-08T03:46:04.000Z,8.50
2022-11-08T03:47:04.000Z,8.47
2022-11-08T03:48:04.000Z,8.45
2022-11-08T03:49:04.000Z,8.42
2022-11-08T03:50:04.000Z,8.37
2022-11-08T03:51:04.000Z,8.36
2022-11-08T03:52:04.000Z,8.33
2022-11-08T03:53:04.000Z,8.33
2022-11-08T03:54:04.000Z,8.30
2022-11-08T03:55:04.000Z,8.29
2022-11-08T03:56:04.000Z,8.32
2022-11-08T03:57:05.000Z,8.25
2022-11-08T03:58:05.000Z,8.26
2022-11-08T03:59:05.000Z,8.22
2022-11-08T04:00:05.000Z,8.21
2022-11-08T04:01:05.000Z,8.17
2022-11-08T04:02:05.000Z,8.18
2022-11-08T04:03:05.000Z,8.18
2022-11-08T04:04:05.000Z,8.18
2022-11-08T04:05:05.000Z,8.12
2022-11-08T04:06:05.000Z,8.17
2022-11-08T04:07:05.000Z,8.18
2022-11-08T04:08:05.000Z,8.26
2022-11-08T04:09:05.000Z,8.29
2022-11-08T04:10:05.000Z,8.36
2022-11-08T04:11:05.000Z,8.47
2022-11-08T04:12:05.000Z,8.54
2022-11-08T04:13:05.000Z,8.63
2022-11-08T04:14:05.000Z,8.62
2022-11-08T04:15:05.000Z,8.71
2022-11-08T04:16:05.000Z,8.75
2022-11-08T04:17:05.000Z,8.73
2022-11-08T04:18:05.000Z,8.75
2022-11-08T04:19:05.000Z,8.76
2022-11-08T04:20:05.000Z,8.75
2022-11-08T04:21:05.000Z,8.75
2022-11-08T04:22:05.000Z,8.68
2022-11-08T04:23:05.000Z,8.63
2022-11-08T04:24:05.000Z,8.62
2022-11-08T04:25:05.000Z,8.55
2022-11-08T04:26:05.000Z,8.54
2022-11-08T04:27:05.000Z,8.55
2022-11-08T04:28:05.000Z,8.54
2022-11-08T04:29:05.000Z,8.54
2022-11-08T04:30:05.000Z,8.51
2022-11-08T04:31:05.000Z,8.51
2022-11-08T04:32:05.000Z,8.51
2022-11-08T04:33:05.000Z,8.51
2022-11-08T04:34:05.000Z,8.48
2022-11-08T04:35:05.000Z,8.48
2022-11-08T04:36:05.000Z,8.45
2022-11-08T04:37:05.000Z,8.42
2022-11-08T04:38:05.000Z,8.39
2022-11-08T04:39:05.000Z,8.47
2022-11-08T04:40:05.000Z,8.39
2022-11-08T04:41:05.000Z,8.36
2022-11-08T04:42:05.000Z,8.37
2022-11-08T04:43:05.000Z,8.33
2022-11-08T04:44:05.000Z,8.33
2022-11-08T04:45:05.000Z,8.29
2022-11-08T04:46:05.000Z,8.25
2022-11-08T04:47:05.000Z,8.26
2022-11-08T04:48:05.000Z,8.18
2022-11-08T04:49:05.000Z,8.18
2022-11-08T04:50:05.000Z,8.20
2022-11-08T04:51:05.000Z,8.17
2022-11-08T04:52:05.000Z,8.20
2022-11-08T04:53:05.000Z,8.21
2022-11-08T04:54:05.000Z,8.20
2022-11-08T04:55:05.000Z,8.21
2022-11-08T04:56:05.000Z,8.28
2022-11-08T04:57:05.000Z,8.28
2022-11-08T04:58:05.000Z,8.25
2022-11-08T04:59:05.000Z,8.21
2022-11-08T05:00:05.000Z,8.17
2022-11-08T05:01:05.000Z,8.14
2022-11-08T05:02:05.000Z,8.12
2022-11-08T05:03:05.000Z,8.10
2022-11-08T05:04:05.000Z,8.08
2022-11-08T05:05:05.000Z,8.08
2022-11-08T05:06:05.000Z,8.04
2022-11-08T05:07:05.000Z,8.11
2022-11-08T05:08:05.000Z,8.04
2022-11-08T05:09:05.000Z,8.07
2022-11-08T05:10:06.000Z,8.03
2022-11-08T05:11:06.000Z,8.03
2022-11-08T05:12:06.000Z,8.10
2022-11-08T05:13:06.000Z,8.07
2022-11-08T05:14:06.000Z,8.08
2022-11-08T05:15:06.000Z,8.03
2022-11-08T05:16:06.000Z,8.12
2022-11-08T05:17:06.000Z,8.08
2022-11-08T05:18:06.000Z,8.04
2022-11-08T05:19:06.000Z,8.02
2022-11-08T05:20:06.000Z,8.00
2022-11-08T05:21:06.000Z,8.00
2022-11-08T05:22:06.000Z,7.97
2022-11-08T05:23:06.000Z,7.97
2022-11-08T05:24:06.000Z,7.99
2022-11-08T05:36:41.000Z,7.93
2022-11-08T05:36:41.000Z,7.90
2022-11-08T05:37:41.000Z,7.93
2022-11-08T05:38:41.000Z,7.89
2022-11-08T05:39:41.000Z,7.92
2022-11-08T05:40:41.000Z,7.87
2022-11-08T05:41:41.000Z,7.87
2022-11-08T05:42:41.000Z,7.89
2022-11-08T05:43:41.000Z,7.92
2022-11-08T05:44:41.000Z,8.02
2022-11-08T05:45:41.000Z,8.02
2022-11-08T05:46:41.000Z,8.08
2022-11-08T05:47:41.000Z,8.11
2022-11-08T05:48:41.000Z,8.10
2022-11-08T05:49:41.000Z,8.11
2022-11-08T05:50:41.000Z,8.07
2022-11-08T05:51:41.000Z,8.07
2022-11-08T05:52:41.000Z,8.03
2022-11-08T05:53:41.000Z,8.03
2022-11-08T05:54:41.000Z,8.02
2022-11-08T05:55:41.000Z,7.97
2022-11-08T05:56:41.000Z,7.96
2022-11-08T05:57:41.000Z,7.93
2022-11-08T05:58:41.000Z,7.96
2022-11-08T05:59:41.000Z,7.97
2022-11-08T06:00:41.000Z,7.90
2022-11-08T06:01:41.000Z,7.87
2022-11-08T06:02:41.000Z,7.87
2022-11-08T06:03:41.000Z,7.87
2022-11-08T06:04:41.000Z,7.84
2022-11-08T06:05:41.000Z,7.82
2022-11-08T06:06:41.000Z,7.81
2022-11-08T06:07:41.000Z,7.79
2022-11-08T06:08:41.000Z,7.78
2022-11-08T06:09:41.000Z,7.81
2022-11-08T06:10:41.000Z,7.78
2022-11-08T06:11:41.000Z,7.75
2022-11-08T06:12:41.000Z,7.71
2022-11-08T06:13:41.000Z,7.71
2022-11-08T06:14:41.000Z,7.74
2022-11-08T06:15:41.000Z,7.75
2022-11-08T06:16:41.000Z,7.78
2022-11-08T06:17:41.000Z,7.74
2022-11-08T06:18:41.000Z,7.75
2022-11-08T06:19:41.000Z,7.67
2022-11-08T06:20:41.000Z,7.67
2022-11-08T06:21:41.000Z,7.74
2022-11-08T06:22:41.000Z,7.74
2022-11-08T06:23:41.000Z,7.72
2022-11-08T06:24:41.000Z,7.67
2022-11-08T06:25:41.000Z,7.66
2022-11-08T06:26:41.000Z,7.66
2022-11-08T06:27:41.000Z,7.66
2022-11-08T06:28:41.000Z,7.69
2022-11-08T06:29:41.000Z,7.66
2022-11-08T06:30:41.000Z,7.63
2022-11-08T06:31:41.000Z,7.69
2022-11-08T06:32:41.000Z,7.63
2022-11-08T06:33:41.000Z,7.67
2022-11-08T06:34:41.000Z,7.66
2022-11-08T06:35:41.000Z,7.66
2022-11-08T06:36:41.000Z,7.63
2022-11-08T06:37:41.000Z,7.71
2022-11-08T06:38:41.000Z,7.71
2022-11-08T06:39:41.000Z,7.71
2022-11-08T06:40:41.000Z,7.72
2022-11-08T06:41:41.000Z,7.67
2022-11-08T06:42:41.000Z,7.63
2022-11-08T06:43:41.000Z,7.72
2022-11-08T06:44:41.000Z,7.78
2022-11-08T06:45:41.000Z,7.74
2022-11-08T06:46:41.000Z,7.74
2022-11-08T06:47:41.000Z,7.78
2022-11-08T06:48:41.000Z,7.74
2022-11-08T06:49:41.000Z,7.74
2022-11-08T06:50:41.000Z,7.79
2022-11-08T06:51:41.000Z,7.78
2022-11-08T06:52:41.000Z,7.78
2022-11-08T06:53:41.000Z,7.78
2022-11-08T06:54:41.000Z,7.78
2022-11-08T06:55:41.000Z,7.79
2022-11-08T06:56:41.000Z,7.77
2022-11-08T06:57:41.000Z,7.78
2022-11-08T06:58:41.000Z,7.79
2022-11-08T06:59:41.000Z,7.79
2022-11-08T08:31:40.000Z,10.76
2022-11-08T08:31:40.000Z,10.73
2022-11-08T08:32:40.000Z,10.77
2022-11-08T08:33:40.000Z,10.81
2022-11-08T08:34:40.000Z,10.83
2022-11-08T08:57:50.000Z,11.46
2022-11-08T08:57:50.000Z,11.47
2022-11-08T08:58:50.000Z,11.50
2022-11-08T08:59:50.000Z,11.52
2022-11-08T09:00:50.000Z,11.54
2022-11-08T09:01:50.000Z,11.59
2022-11-08T09:02:50.000Z,11.57
2022-11-08T09:03:50.000Z,11.59
2022-11-08T09:04:50.000Z,11.61
2022-11-08T09:05:50.000Z,11.65
2022-11-08T09:06:50.000Z,11.70
2022-11-08T09:07:50.000Z,11.72
2022-11-08T09:08:50.000Z,11.75
2022-11-08T09:09:50.000Z,11.77
2022-11-08T09:10:50.000Z,11.83
2022-11-08T09:18:07.000Z,11.96
2022-11-08T09:18:07.000Z,11.96
2022-11-08T09:19:07.000Z,12.02
2022-11-08T09:20:07.000Z,12.01
2022-11-08T09:21:07.000Z,11.99
2022-11-08T09:22:07.000Z,12.05
2022-11-08T09:23:07.000Z,12.05
2022-11-08T09:24:07.000Z,12.08
2022-11-08T09:25:07.000Z,12.11
2022-11-08T09:26:07.000Z,12.16
2022-11-08T09:27:07.000Z,12.23
2022-11-08T09:27:07.000Z,12.23
2022-11-08T09:28:07.000Z,12.29
2022-11-08T09:28:07.000Z,12.29
2022-11-08T09:29:07.000Z,12.31
2022-11-08T09:29:07.000Z,12.31
2022-11-08T09:30:07.000Z,12.38
2022-11-08T09:30:07.000Z,12.38
2022-11-08T09:31:07.000Z,12.42
2022-11-08T09:31:07.000Z,12.42
2022-11-08T09:32:07.000Z,12.45
2022-11-08T09:33:07.000Z,12.49
2022-11-08T09:34:07.000Z,12.49
2022-11-08T09:35:07.000Z,12.52
2022-11-08T09:36:07.000Z,12.54
2022-11-08T09:37:07.000Z,12.57
2022-11-08T09:38:07.000Z,12.59
2022-11-08T09:39:07.000Z,12.59
2022-11-08T09:40:07.000Z,12.60
2022-11-08T09:41:07.000Z,12.62
2022-11-08T09:42:07.000Z,12.66
2022-11-08T09:43:07.000Z,12.66
2022-11-08T09:44:07.000Z,12.63
2022-11-08T09:45:07.000Z,12.62
2022-11-08T09:46:07.000Z,12.62
2022-11-08T09:47:21.000Z,12.59
2022-11-08T09:48:07.000Z,12.57
2022-11-08T09:49:07.000Z,12.60
2022-11-08T09:50:07.000Z,12.62
2022-11-08T09:51:07.000Z,12.57
2022-11-08T09:52:07.000Z,12.54
2022-11-08T09:53:07.000Z,12.54
2022-11-08T09:54:07.000Z,12.54
2022-11-08T09:55:07.000Z,12.52
2022-11-08T09:56:07.000Z,12.51
2022-11-08T09:57:07.000Z,12.48
2022-11-08T09:58:07.000Z,12.46
2022-11-08T09:59:07.000Z,12.45
2022-11-08T10:00:07.000Z,12.44
2022-11-08T10:01:07.000Z,12.45
2022-11-08T10:02:07.000Z,12.46
2022-11-08T10:03:07.000Z,12.41
2022-11-08T10:04:07.000Z,12.38
2022-11-08T10:05:07.000Z,12.33
2022-11-08T10:06:07.000Z,12.37
2022-11-08T10:07:07.000Z,12.37
2022-11-08T10:08:07.000Z,12.38
2022-11-08T10:09:07.000Z,12.45
2022-11-08T10:10:07.000Z,12.48
2022-11-08T10:11:07.000Z,12.49
2022-11-08T10:12:07.000Z,12.52
2022-11-08T10:13:07.000Z,12.59
2022-11-08T10:14:07.000Z,12.62
2022-11-08T10:15:07.000Z,12.67
2022-11-08T10:16:07.000Z,12.67
2022-11-08T10:17:07.000Z,12.71
2022-11-08T10:18:07.000Z,12.74
2022-11-08T10:19:07.000Z,12.82
2022-11-08T10:20:07.000Z,12.87
2022-11-08T10:21:07.000Z,12.93
2022-11-08T10:22:07.000Z,13.02
2022-11-08T10:23:07.000Z,13.11
2022-11-08T10:24:07.000Z,13.18
2022-11-08T10:25:07.000Z,13.25
2022-11-08T10:26:07.000Z,13.33
2022-11-08T10:27:07.000Z,13.41
2022-11-08T10:28:06.000Z,13.49
2022-11-08T10:29:06.000Z,13.56
2022-11-08T10:30:06.000Z,13.58
2022-11-08T10:31:06.000Z,13.65
2022-11-08T10:32:06.000Z,13.65
2022-11-08T10:33:06.000Z,13.73
2022-11-08T10:34:06.000Z,13.84
2022-11-08T10:35:06.000Z,13.91
2022-11-08T10:36:06.000Z,13.96
2022-11-08T10:43:24.000Z,14.42
2022-11-08T10:43:24.000Z,14.37
2022-11-08T10:44:24.000Z,14.46
2022-11-08T10:45:24.000Z,14.49
2022-11-08T10:46:24.000Z,14.53
2022-11-08T10:47:24.000Z,14.57
2022-11-08T10:48:24.000Z,14.67
2022-11-08T10:49:24.000Z,14.61
2022-11-08T10:50:24.000Z,14.57
2022-11-08T10:51:24.000Z,14.61
2022-11-08T11:19:34.000Z,14.72
2022-11-08T11:19:34.000Z,14.69
2022-11-08T11:20:34.000Z,14.74
2022-11-08T11:21:34.000Z,14.78
2022-11-08T11:22:34.000Z,14.75
2022-11-08T11:23:34.000Z,14.78
2022-11-08T11:24:34.000Z,14.78
2022-11-08T11:25:34.000Z,14.75
2022-11-08T11:26:34.000Z,14.81
2022-11-08T11:27:34.000Z,14.84
2022-11-08T11:28:34.000Z,14.81
2022-11-08T11:29:34.000Z,14.84
2022-11-08T11:30:34.000Z,14.86
2022-11-08T11:31:34.000Z,14.83
2022-11-08T11:32:34.000Z,14.83
2022-11-08T11:33:34.000Z,14.84
2022-11-08T11:34:34.000Z,14.88
2022-11-08T11:35:34.000Z,14.88
2022-11-08T11:36:34.000Z,14.86
2022-11-08T11:37:34.000Z,14.90
2022-11-08T11:38:34.000Z,14.88
2022-11-08T11:39:34.000Z,14.90
2022-11-08T11:40:34.000Z,14.90
2022-11-08T11:41:34.000Z,14.86
2022-11-08T11:42:34.000Z,14.90
2022-11-08T11:43:34.000Z,14.86
2022-11-08T11:44:34.000Z,14.90
2022-11-08T11:45:34.000Z,14.95
2022-11-08T11:46:34.000Z,15.01
2022-11-08T11:47:34.000Z,15.02
2022-11-08T11:48:34.000Z,15.03
2022-11-08T11:48:34.000Z,15.03
2022-11-08T11:49:34.000Z,15.02
2022-11-08T11:49:34.000Z,15.02
2022-11-08T11:50:34.000Z,15.03
2022-11-08T11:50:34.000Z,15.03
2022-11-08T11:51:34.000Z,15.03
2022-11-08T11:51:34.000Z,15.03
2022-11-08T11:52:34.000Z,15.05
2022-11-08T11:52:34.000Z,15.05
2022-11-08T11:53:34.000Z,15.08
2022-11-08T11:54:34.000Z,15.09
2022-11-08T11:55:34.000Z,15.03
2022-11-08T11:56:34.000Z,15.06
2022-11-08T11:57:34.000Z,15.09
2022-11-08T11:58:34.000Z,15.11
2022-11-08T11:59:34.000Z,15.12
2022-11-08T12:00:34.000Z,15.11
2022-11-08T12:01:34.000Z,15.12
2022-11-08T12:02:34.000Z,15.09
2022-11-08T12:03:34.000Z,15.11
2022-11-08T12:04:34.000Z,15.08
2022-11-08T12:05:34.000Z,15.09
2022-11-08T12:06:34.000Z,15.12
2022-11-08T12:07:34.000Z,15.11
2022-11-08T12:08:34.000Z,15.11
2022-11-08T12:09:34.000Z,15.12
2022-11-08T12:10:34.000Z,15.09
2022-11-08T12:11:34.000Z,15.12
2022-11-08T12:12:34.000Z,15.19
2022-11-08T12:13:34.000Z,15.23
2022-11-08T12:14:34.000Z,15.19
2022-11-08T12:15:34.000Z,15.17
2022-11-08T12:16:34.000Z,15.17
2022-11-08T12:17:34.000Z,15.17
2022-11-08T12:18:34.000Z,15.19
2022-11-08T12:19:34.000Z,15.20
2022-11-08T12:20:34.000Z,15.21
2022-11-08T12:21:34.000Z,15.24
2022-11-08T12:22:34.000Z,15.31
2022-11-08T12:23:34.000Z,15.31
2022-11-08T12:24:34.000Z,15.26
2022-11-08T12:25:34.000Z,15.28
2022-11-08T12:26:34.000Z,15.24
2022-11-08T12:27:34.000Z,15.28
2022-11-08T12:28:34.000Z,15.31
2022-11-08T12:29:34.000Z,15.31
2022-11-08T12:30:34.000Z,15.27
2022-11-08T12:31:34.000Z,15.28
2022-11-08T12:32:34.000Z,15.24
2022-11-08T12:33:34.000Z,15.28
2022-11-08T12:34:34.000Z,15.27
2022-11-08T12:35:34.000Z,15.31
2022-11-08T12:36:34.000Z,15.27
2022-11-08T12:37:34.000Z,15.30
2022-11-08T12:38:34.000Z,15.28
2022-11-08T12:39:34.000Z,15.31
2022-11-08T12:40:34.000Z,15.35
2022-11-08T12:41:34.000Z,15.38
2022-11-08T12:42:34.000Z,15.38
2022-11-08T12:43:34.000Z,15.39
2022-11-08T12:44:34.000Z,15.42
2022-11-08T12:45:34.000Z,15.39
2022-11-08T12:46:34.000Z,15.39
2022-11-08T12:47:34.000Z,15.42
2022-11-08T12:48:34.000Z,15.38
2022-11-08T12:49:34.000Z,15.38
2022-11-08T12:50:34.000Z,15.39
2022-11-08T12:51:34.000Z,15.36
2022-11-08T12:52:34.000Z,15.35
2022-11-08T12:53:34.000Z,15.42
2022-11-08T12:54:34.000Z,15.42
2022-11-08T12:55:34.000Z,15.45
2022-11-08T12:56:34.000Z,15.42
2022-11-08T12:57:34.000Z,15.39
2022-11-08T12:58:34.000Z,15.39
2022-11-08T12:59:34.000Z,15.42
2022-11-08T13:00:34.000Z,15.41
2022-11-08T13:01:34.000Z,15.39
2022-11-08T13:02:34.000Z,15.42
2022-11-08T13:03:34.000Z,15.39
2022-11-08T13:04:34.000Z,15.41
2022-11-08T13:05:34.000Z,15.42
2022-11-08T13:06:34.000Z,15.43
2022-11-08T13:07:34.000Z,15.46
2022-11-08T13:08:34.000Z,15.49
2022-11-08T13:09:34.000Z,15.57
2022-11-08T13:10:34.000Z,15.60
2022-11-08T13:11:34.000Z,15.63
2022-11-08T13:12:34.000Z,15.68
2022-11-08T13:13:34.000Z,15.66
2022-11-08T13:14:34.000Z,15.67
2022-11-08T13:15:34.000Z,15.63
2022-11-08T13:16:34.000Z,15.61
2022-11-08T13:17:34.000Z,15.66
2022-11-08T13:18:34.000Z,15.67
2022-11-08T13:19:34.000Z,15.70
2022-11-08T13:20:34.000Z,15.84
2022-11-08T13:21:34.000Z,15.92
2022-11-08T13:22:34.000Z,15.92
2022-11-08T13:23:34.000Z,15.96
2022-11-08T13:24:34.000Z,15.97
2022-11-08T13:25:34.000Z,15.94
2022-11-08T13:26:34.000Z,16.00
2022-11-08T13:27:34.000Z,15.96
2022-11-08T13:28:34.000Z,15.96
2022-11-08T13:29:34.000Z,15.96
2022-11-08T13:30:34.000Z,15.99
2022-11-08T13:31:34.000Z,16.06
2022-11-08T13:32:34.000Z,16.11
2022-11-08T13:33:34.000Z,16.07
2022-11-08T13:34:34.000Z,16.06
2022-11-08T13:35:34.000Z,16.07
2022-11-08T13:36:34.000Z,16.04
2022-11-08T13:37:34.000Z,16.07
2022-11-08T13:38:34.000Z,16.01
2022-11-08T13:39:34.000Z,16.03
2022-11-08T13:40:34.000Z,16.01
2022-11-08T13:41:34.000Z,16.03
2022-11-08T13:42:34.000Z,15.96
2022-11-08T13:43:34.000Z,15.96
2022-11-08T13:44:34.000Z,15.96
2022-11-08T13:45:34.000Z,15.92
2022-11-08T13:46:34.000Z,15.89
2022-11-08T13:47:34.000Z,15.92
2022-11-08T13:48:34.000Z,15.94
2022-11-08T13:49:34.000Z,15.96
2022-11-08T13:50:34.000Z,15.97
2022-11-08T13:51:34.000Z,16.04
2022-11-08T13:52:34.000Z,16.03
2022-11-08T13:53:34.000Z,16.06
2022-11-08T13:54:34.000Z,16.04
2022-11-08T13:55:34.000Z,16.03
2022-11-08T13:56:34.000Z,16.04
2022-11-08T13:57:34.000Z,16.01
2022-11-08T13:58:34.000Z,16.03
2022-11-08T13:59:34.000Z,16.04
2022-11-08T14:00:34.000Z,16.03
2022-11-08T14:01:34.000Z,16.06
2022-11-08T14:02:34.000Z,16.06
2022-11-08T14:03:34.000Z,16.11
2022-11-08T14:04:33.000Z,16.11
2022-11-08T14:05:33.000Z,16.09
2022-11-08T14:06:33.000Z,16.04
2022-11-08T14:07:33.000Z,16.06
2022-11-08T14:08:33.000Z,16.00
2022-11-08T14:09:33.000Z,15.94
2022-11-08T14:10:33.000Z,15.96
2022-11-08T14:11:33.000Z,15.93
2022-11-08T14:12:33.000Z,15.88
2022-11-08T14:13:33.000Z,15.89
2022-11-08T14:14:33.000Z,15.78
2022-11-08T14:15:33.000Z,15.76
2022-11-08T14:16:33.000Z,15.74
2022-11-08T14:17:33.000Z,15.70
2022-11-08T14:18:33.000Z,15.63
2022-11-08T14:19:33.000Z,15.61
2022-11-08T14:20:33.000Z,15.60
2022-11-08T14:21:33.000Z,15.56
2022-11-08T14:22:33.000Z,15.51
2022-11-08T14:23:33.000Z,15.49
2022-11-08T14:24:33.000Z,15.42
2022-11-08T14:25:33.000Z,15.35
2022-11-08T14:26:33.000Z,15.30
2022-11-08T14:27:33.000Z,15.26
2022-11-08T14:28:33.000Z,15.19
2022-11-08T14:29:33.000Z,15.17
2022-11-08T14:30:33.000Z,15.15
2022-11-08T14:31:33.000Z,15.15
2022-11-08T14:32:33.000Z,15.09
2022-11-08T14:33:33.000Z,15.02
2022-11-08T14:34:33.000Z,14.99
2022-11-08T14:35:33.000Z,14.93
2022-11-08T14:36:33.000Z,14.91
2022-11-08T14:37:33.000Z,14.90
2022-11-08T14:38:33.000Z,14.88
2022-11-08T14:39:33.000Z,14.87
2022-11-08T14:40:33.000Z,14.90
2022-11-08T14:41:33.000Z,14.84
2022-11-08T14:42:33.000Z,14.80
2022-11-08T14:49:50.000Z,14.53
2022-11-08T14:49:50.000Z,14.46
2022-11-08T14:50:50.000Z,14.42
2022-11-08T14:51:50.000Z,14.39
2022-11-08T14:52:50.000Z,14.38
2022-11-08T14:53:50.000Z,14.32
2022-11-08T14:54:50.000Z,14.29
2022-11-08T14:55:50.000Z,14.21
2022-11-08T14:56:50.000Z,14.21
2022-11-08T14:57:50.000Z,14.17
2022-11-08T14:58:50.000Z,14.14
2022-11-08T14:59:50.000Z,14.07
2022-11-08T15:00:50.000Z,14.07
2022-11-08T15:01:50.000Z,14.01
2022-11-08T15:02:50.000Z,14.01
2022-11-08T15:03:50.000Z,13.92
2022-11-08T15:04:50.000Z,13.89
2022-11-08T15:05:50.000Z,13.87
2022-11-08T15:06:50.000Z,13.81
2022-11-08T15:07:50.000Z,13.79
2022-11-08T15:08:50.000Z,13.73
2022-11-08T15:09:50.000Z,13.65
2022-11-08T15:10:50.000Z,13.62
2022-11-08T15:11:50.000Z,13.58
2022-11-08T15:12:50.000Z,13.54
2022-11-08T15:13:50.000Z,13.47
2022-11-08T15:14:50.000Z,13.44
2022-11-08T15:15:50.000Z,13.40
2022-11-08T15:16:50.000Z,13.37
2022-11-08T15:17:50.000Z,13.32
2022-11-08T15:18:50.000Z,13.30
2022-11-08T15:19:50.000Z,13.25
2022-11-08T15:20:50.000Z,13.22
2022-11-08T15:21:50.000Z,13.21
2022-11-08T15:22:50.000Z,13.14
2022-11-08T15:23:50.000Z,13.11
2022-11-08T15:24:50.000Z,13.07
2022-11-08T15:25:50.000Z,13.03
2022-11-08T15:26:50.000Z,13.00
2022-11-08T15:27:50.000Z,12.96
2022-11-08T15:28:50.000Z,12.93
2022-11-08T15:29:50.000Z,12.89
2022-11-08T15:30:50.000Z,12.84
2022-11-08T15:31:50.000Z,12.81
2022-11-08T15:32:50.000Z,12.79
2022-11-08T15:33:50.000Z,12.70
2022-11-08T15:34:50.000Z,12.69
2022-11-08T15:35:50.000Z,12.63
2022-11-08T15:36:51.000Z,12.59
2022-11-08T15:37:51.000Z,12.54